Aviation Digital Data Service (ADDS)

Output produced by TAFs form (2210 UTC 18 October 2017)
found at http://www.aviationweather.gov/adds/tafs/
 
KPOU 181720Z 1818/1918 VRB03KT P6SM SKC